Bono, Arkansas
Current Conditions -  °F | °C
As of 6:53 PM on Sunday 21 Dec 2014 (Local Time) from KJBR Reporting Station
Overcast Overcast  
Wind Chill: 41°   Ceiling: 8000
Heat Index: 45°   Visibility: 10mi
Dew Point: 39°   Wind: 8mph
Humidity: 80%   Direction: 80°E
Pressure: 29.99"   Gusts: NA
Location:  35.91°N, 90.8°W
Report Text: KJBR 220053Z AUTO 08007KT 10SM BKN080 OVC100 07/04 A2999 RMK AO2 SLP157 T00720039
Loading
Personal Weather Stations






























Interactive Weather Map New forecast layout! Learn more

10-Day Weather Forecast

Advertisements
Track Severe Weather on mobile